Time;durP1;ratioP1;P1;durP2;ratioP2;P2;SDS_P1;SDS_P2;PMS_P1;PMS_P2;Temp;Humidity;BMP_temperature;BMP_pressure;BME280_temperature;BME280_humidity;BME280_pressure;Samples;Min_cycle;Max_cycle;Signal;HPM_P1;HPM_P2
2021/07/07 00:00:25;;;;;;;3.70;2.00;;;17.40;99.90;;;;;;4988532;28;20453;-78
2021/07/07 00:02:53;;;;;;;5.45;1.63;;;17.30;99.90;;;;;;4995497;28;20463;-76
2021/07/07 00:05:21;;;;;;;2.05;1.38;;;17.30;99.90;;;;;;4995267;28;20224;-78
2021/07/07 00:07:49;;;;;;;4.33;1.80;;;17.10;99.90;;;;;;4994962;28;20665;-78
2021/07/07 00:10:18;;;;;;;5.55;1.90;;;17.10;99.90;;;;;;4994933;28;20452;-77
2021/07/07 00:12:47;;;;;;;1.60;1.20;;;17.10;99.90;;;;;;4995810;28;20208;-78
2021/07/07 00:15:17;;;;;;;6.28;2.05;;;17.00;99.90;;;;;;5007920;28;20707;-77
2021/07/07 00:17:46;;;;;;;2.05;1.48;;;17.10;99.90;;;;;;4995452;28;20213;-77
2021/07/07 00:20:16;;;;;;;2.42;1.50;;;17.00;99.90;;;;;;5008357;28;20295;-78
2021/07/07 00:22:43;;;;;;;2.13;1.20;;;17.00;99.90;;;;;;5002183;28;20208;-76
2021/07/07 00:25:11;;;;;;;1.98;1.50;;;17.00;99.90;;;;;;4997772;28;20544;-77
2021/07/07 00:27:38;;;;;;;2.67;1.55;;;16.90;99.90;;;;;;5010175;28;20206;-76
2021/07/07 00:30:06;;;;;;;3.80;1.20;;;16.90;99.90;;;;;;4997888;28;20223;-78
2021/07/07 00:32:35;;;;;;;3.83;1.88;;;17.00;99.90;;;;;;4995477;28;20459;-78
2021/07/07 00:35:02;;;;;;;2.55;1.65;;;17.00;99.90;;;;;;5007364;28;20227;-77
2021/07/07 00:37:29;;;;;;;3.58;1.58;;;16.90;99.90;;;;;;5002237;28;20206;-77
2021/07/07 00:39:56;;;;;;;1.95;1.40;;;16.90;99.90;;;;;;4995187;28;20219;-78
2021/07/07 00:42:23;;;;;;;2.20;1.90;;;16.90;99.90;;;;;;4995066;28;20209;-76
2021/07/07 00:44:50;;;;;;;2.35;1.90;;;16.90;99.90;;;;;;4995313;28;20224;-78
2021/07/07 00:47:17;;;;;;;2.88;1.50;;;16.70;99.90;;;;;;4995483;28;20685;-78
2021/07/07 00:49:47;;;;;;;3.40;1.70;;;16.60;99.90;;;;;;4994022;28;20563;-77
2021/07/07 00:52:14;;;;;;;2.60;1.55;;;16.60;99.90;;;;;;4993748;28;20207;-81
2021/07/07 00:54:42;;;;;;;3.63;2.30;;;16.50;99.90;;;;;;4993828;28;20237;-78
2021/07/07 00:57:11;;;;;;;5.28;2.10;;;16.40;99.90;;;;;;5000730;28;20206;-78
2021/07/07 00:59:38;;;;;;;3.55;1.30;;;16.40;99.90;;;;;;4998357;28;20208;-80
2021/07/07 01:02:07;;;;;;;4.50;1.80;;;16.30;99.90;;;;;;4993894;28;20210;-78
2021/07/07 01:04:34;;;;;;;3.17;2.20;;;16.30;99.90;;;;;;4996237;28;20295;-80
2021/07/07 01:07:03;;;;;;;3.33;1.92;;;16.20;99.90;;;;;;4995001;28;20221;-77
2021/07/07 01:09:30;;;;;;;7.32;2.33;;;16.30;99.90;;;;;;5007759;28;20201;-80
2021/07/07 01:11:57;;;;;;;3.90;2.10;;;16.20;99.90;;;;;;4999151;28;20694;-80
2021/07/07 01:14:24;;;;;;;1.98;1.27;;;16.20;99.90;;;;;;4994746;28;20237;-77
2021/07/07 01:16:52;;;;;;;3.08;1.90;;;16.20;99.90;;;;;;5002483;28;20206;-77
2021/07/07 01:19:19;;;;;;;2.42;1.70;;;16.20;99.90;;;;;;4993907;28;20207;-77
2021/07/07 01:21:48;;;;;;;2.70;1.90;;;16.20;99.90;;;;;;4993940;28;20214;-79
2021/07/07 01:24:17;;;;;;;2.13;1.70;;;16.20;99.90;;;;;;5007718;28;20229;-79
2021/07/07 01:26:45;;;;;;;3.92;2.20;;;16.10;99.90;;;;;;5004386;28;20390;-79
2021/07/07 01:29:13;;;;;;;3.40;2.05;;;16.10;99.90;;;;;;5005101;28;20658;-80
2021/07/07 01:31:40;;;;;;;3.85;2.20;;;16.10;99.90;;;;;;4994320;28;20201;-78
2021/07/07 01:34:07;;;;;;;4.32;2.10;;;16.00;99.90;;;;;;4992156;28;20240;-80
2021/07/07 01:36:35;;;;;;;3.15;1.75;;;16.00;99.90;;;;;;4991623;28;20200;-79
2021/07/07 01:39:06;;;;;;;4.75;2.20;;;16.00;99.90;;;;;;5006824;28;20543;-78
2021/07/07 01:41:34;;;;;;;2.83;1.60;;;16.00;99.90;;;;;;5007658;28;20215;-77
2021/07/07 01:44:01;;;;;;;4.05;1.80;;;16.00;99.90;;;;;;4995212;28;20225;-76
2021/07/07 01:46:29;;;;;;;2.30;1.80;;;16.10;99.90;;;;;;5009873;28;20200;-78
2021/07/07 01:48:56;;;;;;;6.90;1.83;;;16.00;99.90;;;;;;4997554;28;20640;-80
2021/07/07 01:51:23;;;;;;;2.35;2.00;;;15.90;99.90;;;;;;4998529;28;20204;-79
2021/07/07 01:53:51;;;;;;;3.85;1.48;;;15.80;99.90;;;;;;4999304;28;20234;-77
2021/07/07 01:56:20;;;;;;;5.05;2.22;;;15.80;99.90;;;;;;4997363;28;20228;-76
2021/07/07 01:58:47;;;;;;;4.68;2.55;;;15.80;99.90;;;;;;4995181;28;20202;-79
2021/07/07 02:01:15;;;;;;;4.38;2.03;;;15.90;99.90;;;;;;5007097;28;20205;-78
2021/07/07 02:03:43;;;;;;;3.55;1.60;;;15.80;99.90;;;;;;5003632;28;20569;-77
2021/07/07 02:06:10;;;;;;;2.10;1.40;;;15.80;99.90;;;;;;4998541;28;20583;-75
2021/07/07 02:08:37;;;;;;;2.40;1.80;;;15.80;99.90;;;;;;5003894;28;20300;-78
2021/07/07 02:11:04;;;;;;;2.85;1.50;;;15.80;99.90;;;;;;4993294;28;20203;-79
2021/07/07 02:13:33;;;;;;;6.75;2.20;;;15.90;99.90;;;;;;4995437;28;20206;-76
2021/07/07 02:16:00;;;;;;;2.58;1.90;;;15.90;99.90;;;;;;4993954;28;20209;-78
2021/07/07 02:18:27;;;;;;;5.78;3.22;;;15.90;99.90;;;;;;4987113;28;20213;-78
2021/07/07 02:20:54;;;;;;;2.13;1.75;;;15.90;99.90;;;;;;4993964;28;20201;-76
2021/07/07 02:23:21;;;;;;;4.00;1.60;;;15.90;99.90;;;;;;4993036;28;20206;-79
2021/07/07 02:25:48;;;;;;;2.95;2.08;;;15.90;99.90;;;;;;5005864;28;20304;-78
2021/07/07 02:28:18;;;;;;;3.00;1.95;;;15.90;99.90;;;;;;5005517;28;20202;-78
2021/07/07 02:30:48;;;;;;;5.40;2.20;;;15.80;99.90;;;;;;4995410;28;20205;-78
2021/07/07 02:33:15;;;;;;;4.15;1.90;;;15.80;99.90;;;;;;4993725;28;20206;-79
2021/07/07 02:35:43;;;;;;;2.17;1.45;;;15.80;99.90;;;;;;4993618;28;20576;-76
2021/07/07 02:38:13;;;;;;;3.47;1.70;;;15.80;99.90;;;;;;5003426;28;20563;-78
2021/07/07 02:40:42;;;;;;;3.00;2.05;;;15.80;99.90;;;;;;4997919;28;20210;-75
2021/07/07 02:43:10;;;;;;;3.80;2.28;;;15.80;99.90;;;;;;4997797;28;20206;-78
2021/07/07 02:45:38;;;;;;;2.83;1.83;;;15.70;99.90;;;;;;4999939;28;20321;-77
2021/07/07 02:48:08;;;;;;;3.47;2.00;;;15.70;99.90;;;;;;4997360;28;20218;-78
2021/07/07 02:50:37;;;;;;;4.63;2.28;;;15.70;99.90;;;;;;5000040;28;20656;-77
2021/07/07 02:53:04;;;;;;;2.80;1.80;;;15.60;99.90;;;;;;5012770;28;20209;-77
2021/07/07 02:55:32;;;;;;;6.25;1.85;;;15.60;99.90;;;;;;5007227;28;20255;-76
2021/07/07 02:57:59;;;;;;;3.20;1.83;;;15.50;99.90;;;;;;5007711;28;20220;-78
2021/07/07 03:00:31;;;;;;;3.45;2.15;;;15.50;99.90;;;;;;5001443;28;20284;-79
2021/07/07 03:03:04;;;;;;;2.65;1.75;;;15.50;99.90;;;;;;5004242;28;20205;-76
2021/07/07 03:05:34;;;;;;;2.83;2.25;;;15.40;99.90;;;;;;4997233;28;20217;-77
2021/07/07 03:08:01;;;;;;;3.25;1.73;;;15.40;99.90;;;;;;4998237;28;20567;-77
2021/07/07 03:10:28;;;;;;;5.43;2.00;;;15.40;99.90;;;;;;5013854;28;20204;-78
2021/07/07 03:12:56;;;;;;;3.40;2.20;;;15.40;99.90;;;;;;5006411;28;20205;-76
2021/07/07 03:15:25;;;;;;;2.95;1.83;;;15.40;99.90;;;;;;5010201;28;20228;-80
2021/07/07 03:17:52;;;;;;;5.55;2.25;;;15.40;99.90;;;;;;4999075;28;20202;-77
2021/07/07 03:20:20;;;;;;;5.65;2.30;;;15.40;99.90;;;;;;4996808;28;20209;-76
2021/07/07 03:22:49;;;;;;;3.90;2.05;;;15.50;99.90;;;;;;5012561;28;20211;-78
2021/07/07 03:25:17;;;;;;;2.10;1.75;;;15.50;99.90;;;;;;4999971;28;20224;-77
2021/07/07 03:27:44;;;;;;;3.55;2.50;;;15.50;99.90;;;;;;5017488;28;20199;-78
2021/07/07 03:30:12;;;;;;;4.60;2.30;;;15.50;99.90;;;;;;5001780;28;20208;-78
2021/07/07 03:32:39;;;;;;;3.42;2.20;;;15.50;99.90;;;;;;4991770;28;20202;-78
2021/07/07 03:35:08;;;;;;;3.67;1.92;;;15.50;99.90;;;;;;5010419;28;20239;-77
2021/07/07 03:37:35;;;;;;;4.30;2.33;;;15.40;99.90;;;;;;5009499;28;20241;-76
2021/07/07 03:40:04;;;;;;;3.60;1.90;;;15.50;99.90;;;;;;5026873;28;20201;-75
2021/07/07 03:42:31;;;;;;;3.22;1.65;;;15.50;99.90;;;;;;5012901;28;20202;-75
2021/07/07 03:44:59;;;;;;;7.15;2.63;;;15.50;99.90;;;;;;5022438;28;20252;-76
2021/07/07 03:47:29;;;;;;;2.65;2.45;;;15.50;99.90;;;;;;5010100;28;20203;-77
2021/07/07 03:49:56;;;;;;;2.72;1.98;;;15.40;99.90;;;;;;5010249;28;20202;-75
2021/07/07 03:52:25;;;;;;;4.57;1.77;;;15.50;99.90;;;;;;5014551;28;20206;-75
2021/07/07 03:54:52;;;;;;;3.88;2.47;;;15.50;99.90;;;;;;5011125;28;20229;-75
2021/07/07 03:57:21;;;;;;;2.50;2.30;;;15.60;99.90;;;;;;5018728;28;20199;-75
2021/07/07 03:59:48;;;;;;;2.13;1.90;;;15.60;99.90;;;;;;5018345;28;20193;-75
2021/07/07 04:02:16;;;;;;;3.28;1.95;;;15.50;99.90;;;;;;5016286;28;20210;-75
2021/07/07 04:04:43;;;;;;;6.57;2.20;;;15.50;99.90;;;;;;5007180;28;20217;-75
2021/07/07 04:07:11;;;;;;;2.38;1.83;;;15.40;99.90;;;;;;5020277;28;20208;-75
2021/07/07 04:09:39;;;;;;;6.10;2.75;;;15.50;99.90;;;;;;5016902;28;20204;-75
2021/07/07 04:12:07;;;;;;;2.60;1.60;;;15.60;99.90;;;;;;5027600;28;20240;-74
2021/07/07 04:14:38;;;;;;;8.93;3.22;;;15.70;99.90;;;;;;5012211;28;20233;-75
2021/07/07 04:17:05;;;;;;;10.05;3.10;;;15.70;99.90;;;;;;5010800;28;20201;-75
2021/07/07 04:19:32;;;;;;;3.05;2.08;;;15.70;99.90;;;;;;4999143;28;20198;-74
2021/07/07 04:21:59;;;;;;;3.20;2.00;;;15.70;99.90;;;;;;5003585;28;20821;-77
2021/07/07 04:24:29;;;;;;;4.60;1.60;;;15.70;99.90;;;;;;4993043;28;20703;-77
2021/07/07 04:26:56;;;;;;;5.25;2.63;;;15.90;99.90;;;;;;4994452;28;20214;-79
2021/07/07 04:29:23;;;;;;;4.50;2.35;;;15.90;99.90;;;;;;4997285;28;20213;-78
2021/07/07 04:31:56;;;;;;;3.35;2.67;;;16.00;99.90;;;;;;4997838;28;20676;-76
2021/07/07 04:34:23;;;;;;;5.72;2.50;;;15.90;99.90;;;;;;4987325;28;20677;-79
2021/07/07 04:36:50;;;;;;;3.78;2.63;;;16.00;99.90;;;;;;5005201;28;20211;-79
2021/07/07 04:39:18;;;;;;;4.05;2.08;;;16.10;99.90;;;;;;4995879;28;20273;-80
2021/07/07 04:41:45;;;;;;;2.40;1.98;;;16.10;99.90;;;;;;5003301;28;20209;-79
2021/07/07 04:44:12;;;;;;;8.20;2.30;;;16.20;99.90;;;;;;5001355;28;20225;-79
2021/07/07 04:46:40;;;;;;;4.30;2.50;;;16.30;99.90;;;;;;5001074;28;20303;-79
2021/07/07 04:49:08;;;;;;;3.67;2.40;;;16.40;99.90;;;;;;4999688;28;20225;-79
2021/07/07 04:51:36;;;;;;;4.22;3.45;;;16.50;99.90;;;;;;5001289;28;20211;-79
2021/07/07 04:54:03;;;;;;;2.47;2.03;;;16.70;99.90;;;;;;4995966;28;20227;-78
2021/07/07 04:56:30;;;;;;;6.27;2.40;;;17.00;99.90;;;;;;5001075;28;20230;-76
2021/07/07 04:58:57;;;;;;;4.35;2.58;;;17.10;99.90;;;;;;4997884;28;20463;-75
2021/07/07 05:01:24;;;;;;;3.93;2.13;;;17.20;99.90;;;;;;4994154;28;20284;-76
2021/07/07 05:03:52;;;;;;;4.33;1.80;;;17.70;99.90;;;;;;4997203;28;20475;-76
2021/07/07 05:06:20;;;;;;;7.83;2.53;;;18.40;99.90;;;;;;4995374;28;20461;-76
2021/07/07 05:08:47;;;;;;;5.80;1.77;;;19.00;99.90;;;;;;4993789;28;20464;-77
2021/07/07 05:11:16;;;;;;;5.10;2.43;;;19.40;99.90;;;;;;5006029;28;20456;-76
2021/07/07 05:13:43;;;;;;;5.13;2.20;;;19.70;99.90;;;;;;4988156;28;20464;-77
2021/07/07 05:16:10;;;;;;;4.10;1.67;;;20.60;99.90;;;;;;4993716;28;20477;-78
2021/07/07 05:18:37;;;;;;;4.37;1.90;;;21.80;99.90;;;;;;4999380;28;20934;-77
2021/07/07 05:21:04;;;;;;;3.43;1.37;;;22.50;99.00;;;;;;4997163;28;21074;-77
2021/07/07 05:23:34;;;;;;;3.80;1.50;;;22.90;97.60;;;;;;4989018;28;20445;-77
2021/07/07 05:26:02;;;;;;;4.60;2.07;;;23.80;95.90;;;;;;5007318;28;20843;-78
2021/07/07 05:28:29;;;;;;;2.60;1.80;;;24.30;94.20;;;;;;4997788;28;20452;-77
2021/07/07 05:31:03;;;;;;;5.40;2.10;;;24.40;92.80;;;;;;4993722;28;20441;-77
2021/07/07 05:33:34;;;;;;;2.63;1.70;;;24.50;92.80;;;;;;5000042;28;21238;-77
2021/07/07 05:36:01;;;;;;;4.10;1.90;;;24.60;92.70;;;;;;4993593;28;20499;-77
2021/07/07 05:38:28;;;;;;;5.33;3.50;;;24.30;92.30;;;;;;4998606;28;20918;-76
2021/07/07 05:40:57;;;;;;;3.43;1.70;;;24.10;92.70;;;;;;4999873;28;20445;-79
2021/07/07 05:43:25;;;;;;;6.30;1.87;;;23.50;93.10;;;;;;4997721;28;20463;-78
2021/07/07 05:45:52;;;;;;;6.10;2.00;;;22.50;93.90;;;;;;4993073;28;20440;-77
2021/07/07 05:48:19;;;;;;;3.13;2.13;;;21.80;95.90;;;;;;4997591;28;20444;-77
2021/07/07 05:50:47;;;;;;;4.90;1.57;;;21.40;98.20;;;;;;4993672;28;20977;-77
2021/07/07 05:53:14;;;;;;;4.43;2.23;;;22.20;97.50;;;;;;4993876;28;20460;-77
2021/07/07 05:55:41;;;;;;;2.90;1.73;;;22.40;96.10;;;;;;4992776;28;21024;-79
2021/07/07 05:58:09;;;;;;;4.30;1.63;;;23.00;95.60;;;;;;5002888;28;20570;-78
2021/07/07 06:00:38;;;;;;;3.47;2.20;;;23.50;94.70;;;;;;4993562;28;20456;-78
2021/07/07 06:03:06;;;;;;;5.50;1.90;;;24.20;93.60;;;;;;5001344;28;20540;-79
2021/07/07 06:05:33;;;;;;;2.80;1.53;;;24.80;91.90;;;;;;5000376;28;20484;-78
2021/07/07 06:08:00;;;;;;;3.77;2.03;;;24.80;92.00;;;;;;4993381;28;20862;-77
2021/07/07 06:10:28;;;;;;;7.50;1.73;;;24.80;92.20;;;;;;5000915;28;20471;-79
2021/07/07 06:12:56;;;;;;;2.80;1.90;;;24.20;92.20;;;;;;4995556;28;20441;-79
2021/07/07 06:15:26;;;;;;;4.37;1.97;;;23.60;93.40;;;;;;4992362;28;20943;-78
2021/07/07 06:17:54;;;;;;;3.03;1.53;;;23.40;94.20;;;;;;5002439;28;20456;-79
2021/07/07 06:20:21;;;;;;;8.33;2.17;;;23.20;94.20;;;;;;4997963;28;20442;-79
2021/07/07 06:22:48;;;;;;;5.80;2.30;;;23.10;94.70;;;;;;4997945;28;20467;-77
2021/07/07 06:25:17;;;;;;;4.70;1.57;;;23.20;95.20;;;;;;5004406;28;20475;-78
2021/07/07 06:27:44;;;;;;;3.50;2.30;;;24.00;94.30;;;;;;5013742;28;20452;-77
2021/07/07 06:30:13;;;;;;;7.40;1.90;;;24.20;93.60;;;;;;5000447;28;20458;-77
2021/07/07 06:32:44;;;;;;;2.73;1.80;;;25.00;93.30;;;;;;4999276;28;20947;-78
2021/07/07 06:35:12;;;;;;;3.27;1.80;;;26.20;91.20;;;;;;5004346;28;20484;-78
2021/07/07 06:37:39;;;;;;;11.97;4.77;;;27.10;88.90;;;;;;5009047;28;20829;-78
2021/07/07 06:40:08;;;;;;;4.13;1.60;;;27.40;87.00;;;;;;4999402;28;20452;-78
2021/07/07 06:42:35;;;;;;;2.97;1.40;;;27.40;87.10;;;;;;4998404;28;20437;-78
2021/07/07 06:45:04;;;;;;;5.47;1.77;;;27.60;85.40;;;;;;5009504;28;21288;-78
2021/07/07 06:47:31;;;;;;;5.33;1.50;;;27.70;85.90;;;;;;5004089;28;20459;-79
2021/07/07 06:50:00;;;;;;;3.23;2.17;;;27.90;83.50;;;;;;5006351;28;20478;-78
2021/07/07 06:52:27;;;;;;;2.90;1.63;;;28.30;81.70;;;;;;4998876;28;20453;-78
2021/07/07 06:54:54;;;;;;;5.63;1.90;;;28.80;80.00;;;;;;4998168;28;20468;-79
2021/07/07 06:57:21;;;;;;;2.90;1.60;;;29.20;78.10;;;;;;5008630;28;20444;-79
2021/07/07 06:59:49;;;;;;;5.97;1.77;;;29.20;77.20;;;;;;4997083;28;20455;-78
2021/07/07 07:02:16;;;;;;;3.10;1.50;;;29.20;77.80;;;;;;4997911;28;20449;-80
2021/07/07 07:04:45;;;;;;;3.20;1.37;;;29.20;76.90;;;;;;5000911;28;20476;-79
2021/07/07 07:07:13;;;;;;;4.30;1.53;;;29.80;75.50;;;;;;4997586;28;20459;-80
2021/07/07 07:09:40;;;;;;;2.87;1.70;;;29.60;76.10;;;;;;4999780;28;20444;-80
2021/07/07 07:12:08;;;;;;;3.73;1.90;;;29.90;74.30;;;;;;4996977;28;20950;-80
2021/07/07 07:14:35;;;;;;;2.93;1.43;;;30.00;74.20;;;;;;4997351;28;20969;-79
2021/07/07 07:17:02;;;;;;;2.53;1.40;;;29.40;73.50;;;;;;4996754;28;20854;-79
2021/07/07 07:19:29;;;;;;;3.47;2.20;;;29.90;73.70;;;;;;4996884;28;20946;-80
2021/07/07 07:21:59;;;;;;;10.10;1.60;;;29.60;73.70;;;;;;4998060;28;20459;-79
2021/07/07 07:24:30;;;;;;;3.00;1.53;;;29.50;75.00;;;;;;4996629;28;20614;-79
2021/07/07 07:26:57;;;;;;;2.80;1.13;;;30.30;74.80;;;;;;5004259;28;20452;-80
2021/07/07 07:29:25;;;;;;;3.23;1.50;;;31.10;74.10;;;;;;5004609;28;20455;-80
2021/07/07 07:31:52;;;;;;;2.03;1.40;;;31.00;71.50;;;;;;4998321;28;20445;-80
2021/07/07 07:34:19;;;;;;;3.13;1.43;;;31.10;72.00;;;;;;4996406;28;20552;-80
2021/07/07 07:36:49;;;;;;;2.80;1.17;;;31.50;70.50;;;;;;5001462;28;20495;-80
2021/07/07 07:39:20;;;;;;;6.50;2.43;;;31.40;70.20;;;;;;5004592;28;20556;-79
2021/07/07 07:41:48;;;;;;;4.50;1.80;;;31.80;68.00;;;;;;4998858;28;20455;-81
2021/07/07 07:44:18;;;;;;;1.90;1.30;;;32.10;68.20;;;;;;4999281;28;20955;-79
2021/07/07 07:46:45;;;;;;;4.47;1.87;;;32.20;68.10;;;;;;5003326;28;20546;-80
2021/07/07 07:49:13;;;;;;;3.00;1.77;;;32.40;67.40;;;;;;4996070;28;20612;-80
2021/07/07 07:51:41;;;;;;;3.40;1.93;;;32.60;67.40;;;;;;4995854;28;20463;-82
2021/07/07 07:54:08;;;;;;;2.07;1.53;;;32.30;67.00;;;;;;4996469;28;20896;-81
2021/07/07 07:56:35;;;;;;;8.33;2.13;;;32.30;68.50;;;;;;5001399;28;20472;-82
2021/07/07 07:59:04;;;;;;;3.80;1.70;;;32.90;67.70;;;;;;4998175;28;21024;-79
2021/07/07 08:01:34;;;;;;;5.97;2.50;;;32.50;66.30;;;;;;4996545;28;20460;-81
2021/07/07 08:04:01;;;;;;;4.23;1.80;;;32.60;66.50;;;;;;4999485;28;20473;-82
2021/07/07 08:06:28;;;;;;;6.03;1.90;;;33.10;64.30;;;;;;4996576;28;20455;-80
2021/07/07 08:08:57;;;;;;;3.20;1.60;;;32.50;66.20;;;;;;4999992;28;20448;-81
2021/07/07 08:11:24;;;;;;;7.20;2.63;;;32.50;65.20;;;;;;5001968;28;20938;-81
2021/07/07 08:13:52;;;;;;;6.30;1.80;;;33.30;64.60;;;;;;5001281;28;20570;-79
2021/07/07 08:16:22;;;;;;;5.40;1.53;;;33.00;64.40;;;;;;5005514;28;20553;-81
2021/07/07 08:18:51;;;;;;;4.57;1.90;;;32.60;65.00;;;;;;5010755;28;20448;-79
2021/07/07 08:21:19;;;;;;;4.70;2.63;;;32.20;65.20;;;;;;5000763;28;20463;-80
2021/07/07 08:23:48;;;;;;;3.40;1.67;;;32.30;65.80;;;;;;5002835;28;20526;-81
2021/07/07 08:26:15;;;;;;;6.07;1.90;;;31.20;65.70;;;;;;5005812;28;20451;-79
2021/07/07 08:28:43;;;;;;;4.27;1.93;;;31.20;66.00;;;;;;5005799;28;20449;-81
2021/07/07 08:31:10;;;;;;;10.37;2.10;;;30.80;66.20;;;;;;5002446;28;20441;-80
2021/07/07 08:33:38;;;;;;;5.63;1.63;;;31.60;67.00;;;;;;4998548;28;20436;-79
2021/07/07 08:36:06;;;;;;;5.07;1.97;;;31.90;66.90;;;;;;4999155;28;20932;-81
2021/07/07 08:38:33;;;;;;;4.43;2.20;;;31.90;65.70;;;;;;5000450;28;20449;-78
2021/07/07 08:41:00;;;;;;;8.00;2.13;;;32.60;66.80;;;;;;5006486;28;20459;-80
2021/07/07 08:43:28;;;;;;;3.00;1.87;;;32.50;64.50;;;;;;4998268;28;20453;-81
2021/07/07 08:45:56;;;;;;;4.53;2.00;;;31.70;64.70;;;;;;5000128;28;20943;-78
2021/07/07 08:48:25;;;;;;;5.20;2.00;;;32.00;64.20;;;;;;4997406;28;20807;-79
2021/07/07 08:50:58;;;;;;;5.83;1.77;;;31.90;66.90;;;;;;5004537;28;20456;-80
2021/07/07 08:53:26;;;;;;;5.27;2.10;;;32.10;65.20;;;;;;5007118;28;20827;-82
2021/07/07 08:55:54;;;;;;;5.47;2.17;;;31.60;65.50;;;;;;4996971;28;20580;-81
2021/07/07 08:58:21;;;;;;;6.40;1.90;;;31.90;65.80;;;;;;5008720;28;20827;-79
2021/07/07 09:00:51;;;;;;;5.47;2.33;;;32.30;62.80;;;;;;5002601;28;20903;-82
2021/07/07 09:03:21;;;;;;;5.23;2.07;;;32.00;63.70;;;;;;5006513;28;20796;-77
2021/07/07 09:05:52;;;;;;;3.03;2.23;;;32.60;62.20;;;;;;5009669;28;20452;-82
2021/07/07 09:08:27;;;;;;;5.33;1.80;;;33.10;61.40;;;;;;4996286;28;20445;-78
2021/07/07 09:11:15;;;;;;;8.00;1.77;;;32.60;62.40;;;;;;5004835;28;20443;-79
2021/07/07 09:13:43;;;;;;;4.10;1.97;;;32.10;57.70;;;;;;5005105;28;20564;-80
2021/07/07 09:16:11;;;;;;;5.63;1.80;;;31.70;59.70;;;;;;5009707;28;20487;-78
2021/07/07 09:18:41;;;;;;;3.33;1.67;;;31.40;60.80;;;;;;5010784;28;20457;-78
2021/07/07 09:21:25;;;;;;;5.53;1.77;;;30.80;61.50;;;;;;4997334;28;20452;-78
2021/07/07 09:24:00;;;;;;;4.20;2.00;;;30.80;63.40;;;;;;4994664;28;20496;-78
2021/07/07 09:26:30;;;;;;;4.43;2.37;;;30.40;64.30;;;;;;4998657;28;20450;-83
2021/07/07 09:28:57;;;;;;;10.30;1.93;;;29.70;65.20;;;;;;5004346;28;20462;-79
2021/07/07 09:31:38;;;;;;;4.70;1.90;;;29.50;68.60;;;;;;4995073;28;20445;-80
2021/07/07 09:34:13;;;;;;;7.57;2.77;;;29.70;66.20;;;;;;5006017;28;20484;-79
2021/07/07 09:36:44;;;;;;;4.40;2.00;;;30.20;67.70;;;;;;4999738;28;20476;-81
2021/07/07 09:39:14;;;;;;;6.67;1.90;;;30.70;65.60;;;;;;4997296;28;20453;-80
2021/07/07 09:41:43;;;;;;;5.80;2.27;;;30.20;66.50;;;;;;4998877;28;20449;-79
2021/07/07 09:44:11;;;;;;;5.93;2.43;;;30.10;67.40;;;;;;5006821;28;20468;-79
2021/07/07 09:46:38;;;;;;;5.97;1.80;;;30.30;67.80;;;;;;5005801;28;20452;-79
2021/07/07 09:49:06;;;;;;;4.53;2.10;;;31.00;65.10;;;;;;4995895;28;20457;-77
2021/07/07 09:51:34;;;;;;;6.23;2.17;;;32.00;64.60;;;;;;5004374;28;20451;-79
2021/07/07 09:54:05;;;;;;;8.10;3.03;;;31.60;64.20;;;;;;5003602;28;20520;-80
2021/07/07 09:56:35;;;;;;;4.33;2.10;;;31.40;65.70;;;;;;5002821;28;20508;-76
2021/07/07 09:59:03;;;;;;;3.53;1.87;;;30.60;65.00;;;;;;4999929;28;20448;-77
2021/07/07 10:01:32;;;;;;;6.33;3.10;;;30.00;66.20;;;;;;5002840;28;20943;-79
2021/07/07 10:04:01;;;;;;;7.73;1.80;;;29.20;69.00;;;;;;4999679;28;20469;-78
2021/07/07 10:06:28;;;;;;;6.57;2.20;;;28.70;68.50;;;;;;4986255;28;20472;-77
2021/07/07 10:08:57;;;;;;;5.30;1.97;;;28.70;70.20;;;;;;4995492;28;20459;-79
2021/07/07 10:11:27;;;;;;;6.90;2.53;;;29.20;69.50;;;;;;4996289;28;20449;-79
2021/07/07 10:13:56;;;;;;;8.07;2.20;;;28.90;69.30;;;;;;4995061;28;20471;-79
2021/07/07 10:16:32;;;;;;;6.13;1.77;;;28.30;69.00;;;;;;5001103;28;21032;-77
2021/07/07 10:18:59;;;;;;;6.50;2.47;;;28.30;70.30;;;;;;5005873;28;20452;-78
2021/07/07 10:21:27;;;;;;;7.47;2.30;;;29.20;68.70;;;;;;4996339;28;20460;-77
2021/07/07 10:23:56;;;;;;;4.30;2.27;;;30.20;68.10;;;;;;4993371;28;20460;-77
2021/07/07 10:26:26;;;;;;;5.13;1.97;;;30.40;66.50;;;;;;5008980;28;20448;-78
2021/07/07 10:28:54;;;;;;;5.43;2.10;;;30.60;65.50;;;;;;5005779;28;20528;-79
2021/07/07 10:31:47;;;;;;;5.33;1.50;;;30.60;66.40;;;;;;4994146;28;20472;-79
2021/07/07 10:34:15;;;;;;;4.60;2.10;;;30.40;63.30;;;;;;4994789;28;20509;-79
2021/07/07 10:36:43;;;;;;;8.60;2.80;;;29.60;65.10;;;;;;5001986;28;20464;-78
2021/07/07 10:39:13;;;;;;;7.57;2.30;;;29.50;66.40;;;;;;4994124;28;20444;-79
2021/07/07 10:41:52;;;;;;;4.17;2.70;;;29.70;65.50;;;;;;5000357;28;20459;-78
2021/07/07 10:44:53;;;;;;;6.53;2.20;;;29.70;65.60;;;;;;4996344;28;20875;-78
2021/07/07 10:47:42;;;;;;;7.20;2.30;;;29.60;66.80;;;;;;4980665;28;20448;-78
2021/07/07 10:50:11;;;;;;;5.83;1.80;;;28.50;67.60;;;;;;5005271;28;20444;-79
2021/07/07 10:52:44;;;;;;;9.40;2.90;;;27.80;69.40;;;;;;5000726;28;20506;-80
2021/07/07 10:55:15;;;;;;;6.37;2.30;;;27.60;71.70;;;;;;4997867;28;20537;-77
2021/07/07 10:57:45;;;;;;;6.70;2.20;;;27.50;71.60;;;;;;5014438;28;20502;-80
2021/07/07 11:00:34;;;;;;;7.83;1.97;;;27.90;70.70;;;;;;5007041;28;20459;-78
2021/07/07 11:03:39;;;;;;;5.03;2.30;;;27.60;71.10;;;;;;5014472;28;20472;-79
2021/07/07 11:06:29;;;;;;;7.20;2.40;;;27.80;70.80;;;;;;5009630;28;20488;-79
2021/07/07 11:09:14;;;;;;;9.20;2.40;;;27.80;70.60;;;;;;5004478;28;20456;-79
2021/07/07 11:11:43;;;;;;;8.10;2.87;;;28.00;70.80;;;;;;4970926;28;20805;-76
2021/07/07 11:14:20;;;;;;;5.93;2.60;;;28.00;71.00;;;;;;5005250;28;20814;-79
2021/07/07 11:16:53;;;;;;;5.03;2.30;;;28.10;70.50;;;;;;5009424;28;20476;-81
2021/07/07 11:19:44;;;;;;;6.43;2.50;;;28.40;68.90;;;;;;4999552;28;20463;-79
2021/07/07 11:22:13;;;;;;;10.43;2.97;;;28.00;69.00;;;;;;4998561;28;20931;-80
2021/07/07 11:24:46;;;;;;;6.20;1.93;;;27.90;69.30;;;;;;4998469;28;20469;-78
2021/07/07 11:27:13;;;;;;;4.23;2.03;;;28.10;69.80;;;;;;5004456;28;20458;-78
2021/07/07 11:29:44;;;;;;;6.47;1.80;;;28.40;69.50;;;;;;5004132;28;20448;-77
2021/07/07 11:32:28;;;;;;;4.53;2.20;;;28.10;69.50;;;;;;4997959;28;20441;-80
2021/07/07 11:35:02;;;;;;;7.57;1.70;;;28.30;68.90;;;;;;5001585;28;20476;-79
2021/07/07 11:37:31;;;;;;;6.20;2.90;;;28.20;69.10;;;;;;5000858;28;20512;-80
2021/07/07 11:40:06;;;;;;;6.03;2.17;;;28.30;68.90;;;;;;4997787;28;20572;-81
2021/07/07 11:42:34;;;;;;;6.77;2.40;;;27.60;69.20;;;;;;5010047;28;20458;-79
2021/07/07 11:45:06;;;;;;;6.50;2.53;;;27.70;71.50;;;;;;5006405;28;20983;-80
2021/07/07 11:47:36;;;;;;;7.80;2.53;;;27.60;71.50;;;;;;4998571;28;20439;-77
2021/07/07 11:50:08;;;;;;;6.77;2.20;;;27.60;72.20;;;;;;4998334;28;20519;-77
2021/07/07 11:52:56;;;;;;;5.70;2.63;;;27.60;70.70;;;;;;5009559;28;20459;-80
2021/07/07 11:56:03;;;;;;;5.63;2.37;;;27.80;69.60;;;;;;4993338;28;20463;-80
2021/07/07 11:58:36;;;;;;;6.50;2.20;;;28.20;70.00;;;;;;4985468;28;20534;-79
2021/07/07 12:01:12;;;;;;;9.53;2.30;;;28.50;70.60;;;;;;4979876;28;20465;-77
2021/07/07 12:03:40;;;;;;;6.23;2.33;;;28.30;68.80;;;;;;5000219;28;20767;-79
2021/07/07 12:06:11;;;;;;;4.40;2.77;;;28.30;67.60;;;;;;5006069;28;20797;-77
2021/07/07 12:08:41;;;;;;;6.63;2.20;;;28.30;67.50;;;;;;5001928;28;21076;-78
2021/07/07 12:11:14;;;;;;;6.97;2.30;;;27.70;67.80;;;;;;5000955;28;20441;-78
2021/07/07 12:13:45;;;;;;;4.47;2.13;;;27.60;68.50;;;;;;5002372;28;20554;-80
2021/07/07 12:16:32;;;;;;;4.97;1.83;;;27.20;69.40;;;;;;4999019;28;20480;-79
2021/07/07 12:19:03;;;;;;;4.03;2.30;;;27.40;69.00;;;;;;4994677;28;20444;-81
2021/07/07 12:21:42;;;;;;;6.50;2.17;;;27.40;67.90;;;;;;4995683;28;20448;-79
2021/07/07 12:24:11;;;;;;;6.13;2.20;;;27.40;68.20;;;;;;4994243;28;20469;-80
2021/07/07 12:26:40;;;;;;;3.93;1.97;;;27.50;67.90;;;;;;4991211;28;20471;-80
2021/07/07 12:29:12;;;;;;;3.77;1.90;;;28.00;67.20;;;;;;5005611;28;20457;-79
2021/07/07 12:31:42;;;;;;;5.90;2.00;;;27.60;67.50;;;;;;4990232;28;20919;-78
2021/07/07 12:34:10;;;;;;;4.50;1.60;;;27.80;69.60;;;;;;4994683;28;20476;-81
2021/07/07 12:36:43;;;;;;;4.73;2.10;;;28.00;68.70;;;;;;5003224;28;20447;-80
2021/07/07 12:39:24;;;;;;;2.40;1.30;;;27.90;66.60;;;;;;4997313;28;20480;-81
2021/07/07 12:42:01;;;;;;;4.57;1.80;;;27.80;66.20;;;;;;4985644;28;20440;-80
2021/07/07 12:44:32;;;;;;;8.83;2.00;;;28.10;65.10;;;;;;4990907;28;20532;-76
2021/07/07 12:47:05;;;;;;;5.23;1.97;;;28.00;65.20;;;;;;4997307;28;20451;-77
2021/07/07 12:49:45;;;;;;;5.53;1.83;;;27.90;64.90;;;;;;4990975;28;20449;-80
2021/07/07 12:52:34;;;;;;;4.60;1.90;;;27.70;65.50;;;;;;4996691;28;20459;-80
2021/07/07 12:55:07;;;;;;;3.40;1.67;;;27.80;66.20;;;;;;4996704;28;20470;-81
2021/07/07 12:57:49;;;;;;;10.30;2.70;;;27.90;67.70;;;;;;5009293;28;20937;-81